Time,TemperatureF,DewpointF,PressureIn,WindDirection,WindDirectionDegrees,WindSpeedMPH,WindSpeedGustMPH,Humidity,HourlyPrecipIn,Conditions,Clouds,dailyrainin,SolarRadiationWatts/m^2,SoftwareType,DateUTC
2015-07-01 00:00:00,71.0,53.0,-100.00,NNE,26,3.0,6.0,52,-99.99,,,-99.99,0.000000,,2015-07-01 07:00:00,
2015-07-01 00:43:00,71.0,53.0,-100.00,NNE,26,3.0,6.0,52,-99.99,,,-99.99,0.000000,,2015-07-01 07:43:00,
2015-07-01 00:53:00,71.0,53.0,-100.00,NNE,26,3.0,6.0,52,-99.99,,,-99.99,0.000000,,2015-07-01 07:53:00,
2015-07-01 01:00:00,70.0,55.0,-100.00,NNE,29,3.0,5.0,58,-99.99,,,-99.99,0.000000,,2015-07-01 08:00:00,
2015-07-01 01:43:00,70.0,55.0,-100.00,NNE,29,3.0,5.0,58,-99.99,,,-99.99,0.000000,,2015-07-01 08:43:00,
2015-07-01 01:53:00,70.0,55.0,-100.00,NNE,29,3.0,5.0,58,-99.99,,,-99.99,0.000000,,2015-07-01 08:53:00,
2015-07-01 02:00:00,68.0,53.0,-100.00,NNE,24,3.0,6.0,60,-99.99,,,-99.99,0.000000,,2015-07-01 09:00:00,
2015-07-01 02:43:00,68.0,53.0,-100.00,NNE,24,3.0,6.0,60,-99.99,,,-99.99,0.000000,,2015-07-01 09:43:00,
2015-07-01 02:54:00,68.0,53.0,-100.00,NNE,24,3.0,6.0,60,-99.99,,,-99.99,0.000000,,2015-07-01 09:54:00,
2015-07-01 03:00:00,66.0,54.0,-100.00,NNE,29,3.0,5.0,65,-99.99,,,-99.99,0.000000,,2015-07-01 10:00:00,
2015-07-01 03:43:00,66.0,54.0,-100.00,NNE,29,3.0,5.0,65,-99.99,,,-99.99,0.000000,,2015-07-01 10:43:00,
2015-07-01 03:53:00,66.0,54.0,-100.00,NNE,29,3.0,5.0,65,-99.99,,,-99.99,0.000000,,2015-07-01 10:53:00,
2015-07-01 04:00:00,65.0,53.0,-100.00,NNE,21,4.0,7.0,66,-99.99,,,-99.99,0.000000,,2015-07-01 11:00:00,
2015-07-01 04:43:00,65.0,53.0,-100.00,NNE,21,4.0,7.0,66,-99.99,,,-99.99,0.000000,,2015-07-01 11:43:00,
2015-07-01 04:54:00,65.0,53.0,-100.00,NNE,21,4.0,7.0,66,-99.99,,,-99.99,0.000000,,2015-07-01 11:54:00,
2015-07-01 05:00:00,63.0,53.0,-100.00,NE,43,5.0,7.0,71,-99.99,,,-99.99,3.950000,,2015-07-01 12:00:00,
2015-07-01 05:43:00,63.0,53.0,-100.00,NE,43,5.0,7.0,71,-99.99,,,-99.99,3.950000,,2015-07-01 12:43:00,
2015-07-01 05:54:00,63.0,53.0,-100.00,NE,43,5.0,7.0,71,-99.99,,,-99.99,3.950000,,2015-07-01 12:54:00,
2015-07-01 06:00:00,62.0,53.0,-100.00,NNE,24,3.0,6.0,71,-99.99,,,-99.99,27.080000,,2015-07-01 13:00:00,
2015-07-01 06:43:00,62.0,53.0,-100.00,NNE,24,3.0,6.0,71,-99.99,,,-99.99,27.080000,,2015-07-01 13:43:00,
2015-07-01 06:53:00,62.0,53.0,-100.00,NNE,24,3.0,6.0,71,-99.99,,,-99.99,27.080000,,2015-07-01 13:53:00,
2015-07-01 07:00:00,67.0,57.0,-100.00,NE,40,3.0,5.0,71,-99.99,,,-99.99,272.649994,,2015-07-01 14:00:00,
2015-07-01 07:43:00,67.0,57.0,-100.00,NE,40,3.0,5.0,71,-99.99,,,-99.99,272.649994,,2015-07-01 14:43:00,
2015-07-01 07:53:00,67.0,57.0,-100.00,NE,40,3.0,5.0,71,-99.99,,,-99.99,272.649994,,2015-07-01 14:53:00,
2015-07-01 08:00:00,71.0,57.0,-100.00,SE,140,2.0,4.0,61,-99.99,,,-99.99,452.209991,,2015-07-01 15:00:00,
2015-07-01 08:43:00,71.0,57.0,-100.00,SE,140,2.0,4.0,61,-99.99,,,-99.99,452.209991,,2015-07-01 15:43:00,
2015-07-01 08:53:00,71.0,57.0,-100.00,SE,140,2.0,4.0,61,-99.99,,,-99.99,452.209991,,2015-07-01 15:53:00,
2015-07-01 09:00:00,77.0,58.0,-100.00,SSE,164,2.0,5.0,51,-99.99,,,-99.99,614.219971,,2015-07-01 16:00:00,
2015-07-01 09:43:00,77.0,58.0,-100.00,SSE,164,2.0,5.0,51,-99.99,,,-99.99,614.219971,,2015-07-01 16:43:00,
2015-07-01 09:54:00,77.0,58.0,-100.00,SSE,164,2.0,5.0,51,-99.99,,,-99.99,614.219971,,2015-07-01 16:54:00,
2015-07-01 10:00:00,78.0,59.0,-100.00,SSW,209,2.0,4.0,52,-99.99,,,-99.99,766.700012,,2015-07-01 17:00:00,
2015-07-01 10:44:00,78.0,59.0,-100.00,SSW,209,2.0,4.0,52,-99.99,,,-99.99,766.700012,,2015-07-01 17:44:00,
2015-07-01 10:54:00,78.0,59.0,-100.00,SSW,209,2.0,4.0,52,-99.99,,,-99.99,766.700012,,2015-07-01 17:54:00,